Time;durP1;ratioP1;P1;durP2;ratioP2;P2;SDS_P1;SDS_P2;PMS_P1;PMS_P2;Temp;Humidity;BMP_temperature;BMP_pressure;BME280_temperature;BME280_humidity;BME280_pressure;Samples;Min_cycle;Max_cycle;Signal;HPM_P1;HPM_P2
2022/09/02 00:00:05;;;;;;;6.88;6.28;;;;;;;;;;10071522;28;20051;-67
2022/09/02 00:05:01;;;;;;;7.03;6.47;;;;;;;;;;10071643;28;20493;-67
2022/09/02 00:09:59;;;;;;;6.93;6.43;;;;;;;;;;10099444;28;20047;-67
2022/09/02 00:14:55;;;;;;;7.03;6.53;;;;;;;;;;10082132;28;20133;-67
2022/09/02 00:19:53;;;;;;;7.00;6.50;;;;;;;;;;10104277;28;20571;-67
2022/09/02 00:24:51;;;;;;;7.15;6.65;;;;;;;;;;10070183;28;20106;-67
2022/09/02 00:29:48;;;;;;;7.43;6.93;;;;;;;;;;10069571;28;20495;-67
2022/09/02 00:34:44;;;;;;;7.40;6.90;;;;;;;;;;10078641;28;20485;-67
2022/09/02 00:39:40;;;;;;;7.78;7.07;;;;;;;;;;10075638;28;20048;-67
2022/09/02 00:44:37;;;;;;;7.50;7.00;;;;;;;;;;10074946;28;20405;-67
2022/09/02 00:49:37;;;;;;;8.05;7.55;;;;;;;;;;10081557;28;20127;-68
2022/09/02 00:54:36;;;;;;;8.18;7.60;;;;;;;;;;10067126;28;20048;-66
2022/09/02 00:59:43;;;;;;;8.13;7.55;;;;;;;;;;10082915;28;20532;-66
2022/09/02 01:04:41;;;;;;;8.73;8.10;;;;;;;;;;10068822;28;20479;-66
2022/09/02 01:09:39;;;;;;;8.25;7.68;;;;;;;;;;10089040;28;20059;-68
2022/09/02 01:14:35;;;;;;;8.82;8.25;;;;;;;;;;10087568;28;20476;-68
2022/09/02 01:19:33;;;;;;;9.02;8.43;;;;;;;;;;10070268;28;20079;-68
2022/09/02 01:24:31;;;;;;;9.57;8.98;;;;;;;;;;10072625;28;20043;-68
2022/09/02 01:29:27;;;;;;;9.85;9.25;;;;;;;;;;10086952;28;20130;-68
2022/09/02 01:34:24;;;;;;;10.35;9.65;;;;;;;;;;10079363;28;20071;-67
2022/09/02 01:39:20;;;;;;;10.43;9.63;;;;;;;;;;10086843;28;20059;-68
2022/09/02 01:44:16;;;;;;;10.02;9.43;;;;;;;;;;10083912;28;20196;-68
2022/09/02 01:49:13;;;;;;;10.82;10.13;;;;;;;;;;10073361;28;20047;-68
2022/09/02 01:54:09;;;;;;;11.88;11.18;;;;;;;;;;10105749;28;20043;-68
2022/09/02 01:59:06;;;;;;;14.70;11.82;;;;;;;;;;10079715;28;20108;-68
2022/09/02 02:04:03;;;;;;;12.25;11.45;;;;;;;;;;10077831;28;20074;-68
2022/09/02 02:09:00;;;;;;;12.70;12.00;;;;;;;;;;10070221;28;20505;-68
2022/09/02 02:13:56;;;;;;;13.88;12.98;;;;;;;;;;10070125;28;20035;-68
2022/09/02 02:18:52;;;;;;;14.20;13.25;;;;;;;;;;10080963;28;20693;-67
2022/09/02 02:23:48;;;;;;;15.35;14.45;;;;;;;;;;10093997;28;20105;-68
2022/09/02 02:28:45;;;;;;;14.73;13.82;;;;;;;;;;10074425;28;20567;-68
2022/09/02 02:33:41;;;;;;;15.07;14.27;;;;;;;;;;10054027;28;20063;-68
2022/09/02 02:38:38;;;;;;;15.15;14.25;;;;;;;;;;10080237;28;20134;-67
2022/09/02 02:43:35;;;;;;;15.93;14.93;;;;;;;;;;10079221;28;20047;-68
2022/09/02 02:48:32;;;;;;;17.35;16.30;;;;;;;;;;10080719;28;20619;-68
2022/09/02 02:53:30;;;;;;;18.65;17.55;;;;;;;;;;10081319;28;20468;-68
2022/09/02 02:58:26;;;;;;;17.50;16.40;;;;;;;;;;10085980;28;20046;-69
2022/09/02 03:03:23;;;;;;;18.75;17.65;;;;;;;;;;10067546;28;21140;-68
2022/09/02 03:08:20;;;;;;;19.15;17.95;;;;;;;;;;10141970;28;20078;-68
2022/09/02 03:13:16;;;;;;;20.52;19.33;;;;;;;;;;10083802;28;20038;-68
2022/09/02 03:18:13;;;;;;;20.60;19.50;;;;;;;;;;10095228;28;20054;-68
2022/09/02 03:23:11;;;;;;;20.65;19.38;;;;;;;;;;10119950;28;20100;-68
2022/09/02 03:28:07;;;;;;;22.33;21.13;;;;;;;;;;10123892;28;20174;-67
2022/09/02 03:33:04;;;;;;;23.55;22.25;;;;;;;;;;10088283;28;20079;-67
2022/09/02 03:38:01;;;;;;;24.50;23.10;;;;;;;;;;10121254;28;20100;-67
2022/09/02 03:42:57;;;;;;;22.95;21.73;;;;;;;;;;10118045;28;20066;-67
2022/09/02 03:47:56;;;;;;;25.58;24.27;;;;;;;;;;10078730;28;20109;-67
2022/09/02 03:52:53;;;;;;;28.13;26.58;;;;;;;;;;10085075;28;20067;-67
2022/09/02 03:57:50;;;;;;;28.23;26.52;;;;;;;;;;10107536;28;20564;-68
2022/09/02 04:02:46;;;;;;;30.52;28.92;;;;;;;;;;10093647;28;20073;-68
2022/09/02 04:07:45;;;;;;;32.80;31.00;;;;;;;;;;10088627;28;20549;-67
2022/09/02 04:12:42;;;;;;;33.40;31.67;;;;;;;;;;10090917;28;20078;-67
2022/09/02 04:17:39;;;;;;;34.25;32.42;;;;;;;;;;10079268;28;20101;-67
2022/09/02 04:22:36;;;;;;;31.70;30.00;;;;;;;;;;10083423;28;20089;-67
2022/09/02 04:27:33;;;;;;;31.00;29.40;;;;;;;;;;10082784;28;21245;-66
2022/09/02 04:32:30;;;;;;;31.48;29.77;;;;;;;;;;10072943;28;20108;-66
2022/09/02 04:37:32;;;;;;;34.00;32.20;;;;;;;;;;10074077;28;20074;-67
2022/09/02 04:42:28;;;;;;;34.08;32.28;;;;;;;;;;10095384;28;20054;-67
2022/09/02 04:47:25;;;;;;;36.47;34.58;;;;;;;;;;10067522;28;21030;-67
2022/09/02 04:52:21;;;;;;;35.80;33.90;;;;;;;;;;10075773;28;20134;-67
2022/09/02 04:57:18;;;;;;;37.85;35.55;;;;;;;;;;10059607;28;20074;-67
2022/09/02 05:02:15;;;;;;;35.90;33.90;;;;;;;;;;10050558;28;20043;-67
2022/09/02 05:07:11;;;;;;;36.03;33.92;;;;;;;;;;10046760;28;20164;-67
2022/09/02 05:12:08;;;;;;;37.05;34.95;;;;;;;;;;10062338;28;20050;-67
2022/09/02 05:17:05;;;;;;;36.13;33.97;;;;;;;;;;10060933;28;20078;-67
2022/09/02 05:22:03;;;;;;;36.38;34.33;;;;;;;;;;10062821;28;20043;-67
2022/09/02 05:27:00;;;;;;;34.60;32.60;;;;;;;;;;10062052;28;20101;-67
2022/09/02 05:31:56;;;;;;;38.13;35.92;;;;;;;;;;10076550;28;20140;-67
2022/09/02 05:36:52;;;;;;;34.97;32.97;;;;;;;;;;10101943;28;20134;-67
2022/09/02 05:41:49;;;;;;;38.05;35.63;;;;;;;;;;10091077;28;20109;-70
2022/09/02 05:46:45;;;;;;;35.42;33.42;;;;;;;;;;10068840;28;20593;-69
2022/09/02 05:51:46;;;;;;;36.90;34.75;;;;;;;;;;10072191;28;20613;-70
2022/09/02 05:56:43;;;;;;;36.30;34.20;;;;;;;;;;10079039;28;20503;-69
2022/09/02 06:01:40;;;;;;;35.30;33.10;;;;;;;;;;10074156;28;20071;-69
2022/09/02 06:06:37;;;;;;;35.47;33.38;;;;;;;;;;10070969;28;20572;-68
2022/09/02 06:11:38;;;;;;;34.60;32.60;;;;;;;;;;10075354;28;20451;-67
2022/09/02 06:16:35;;;;;;;33.45;31.45;;;;;;;;;;10079978;28;20078;-65
2022/09/02 06:21:32;;;;;;;33.92;31.92;;;;;;;;;;10075060;28;20047;-66
2022/09/02 06:26:28;;;;;;;30.92;29.13;;;;;;;;;;10072590;28;20129;-68
2022/09/02 06:31:25;;;;;;;29.33;27.67;;;;;;;;;;10074092;28;20044;-68
2022/09/02 06:36:22;;;;;;;30.38;28.58;;;;;;;;;;10076029;28;20053;-69
2022/09/02 06:41:28;;;;;;;30.83;29.00;;;;;;;;;;10078989;28;20047;-69
2022/09/02 06:46:26;;;;;;;29.70;27.83;;;;;;;;;;10074069;28;20047;-69
2022/09/02 06:51:34;;;;;;;26.55;25.02;;;;;;;;;;10081384;28;20055;-69
2022/09/02 06:56:31;;;;;;;25.90;24.30;;;;;;;;;;10072322;28;20043;-69
2022/09/02 07:01:28;;;;;;;25.60;24.10;;;;;;;;;;10077188;28;20054;-68
2022/09/02 07:06:26;;;;;;;24.40;23.00;;;;;;;;;;10076779;28;20073;-69
2022/09/02 07:11:22;;;;;;;23.85;22.17;;;;;;;;;;10065450;28;20059;-69
2022/09/02 07:16:19;;;;;;;22.50;21.10;;;;;;;;;;10074409;28;20155;-69
2022/09/02 07:21:23;;;;;;;23.10;21.60;;;;;;;;;;10078289;28;20089;-69
2022/09/02 07:26:19;;;;;;;21.98;20.67;;;;;;;;;;10074944;28;20122;-68
2022/09/02 07:31:16;;;;;;;21.70;20.10;;;;;;;;;;10074496;28;20043;-69
2022/09/02 07:36:12;;;;;;;17.80;16.70;;;;;;;;;;10078808;28;20464;-69
2022/09/02 07:41:09;;;;;;;17.08;16.08;;;;;;;;;;10075891;28;20043;-70
2022/09/02 07:46:06;;;;;;;15.77;14.80;;;;;;;;;;10079613;28;20078;-69
2022/09/02 07:51:03;;;;;;;15.00;14.05;;;;;;;;;;10082937;28;20417;-69
2022/09/02 07:55:59;;;;;;;14.73;13.73;;;;;;;;;;10084237;28;20082;-69
2022/09/02 08:00:56;;;;;;;13.45;12.65;;;;;;;;;;10077717;28;20055;-71
2022/09/02 08:05:53;;;;;;;15.13;13.65;;;;;;;;;;10076634;28;20593;-71
2022/09/02 08:10:49;;;;;;;11.75;10.98;;;;;;;;;;10086556;28;20535;-71
2022/09/02 08:15:47;;;;;;;11.50;10.80;;;;;;;;;;10083928;28;20047;-71
2022/09/02 08:20:46;;;;;;;11.20;10.50;;;;;;;;;;10071471;28;20054;-71
2022/09/02 08:25:43;;;;;;;12.02;11.32;;;;;;;;;;10068374;28;20108;-70
2022/09/02 08:30:39;;;;;;;11.68;10.77;;;;;;;;;;10068840;28;20044;-72
2022/09/02 08:35:36;;;;;;;11.65;10.48;;;;;;;;;;10064490;28;20110;-71
2022/09/02 08:40:38;;;;;;;10.00;9.40;;;;;;;;;;10057025;28;20520;-71
2022/09/02 08:45:38;;;;;;;10.40;9.70;;;;;;;;;;10056313;28;20059;-70
2022/09/02 08:50:36;;;;;;;10.48;9.77;;;;;;;;;;10057690;28;20142;-71
2022/09/02 08:55:49;;;;;;;10.50;9.70;;;;;;;;;;10066123;28;20207;-70
2022/09/02 09:00:50;;;;;;;10.83;10.13;;;;;;;;;;10065920;28;20051;-70
2022/09/02 09:05:59;;;;;;;9.80;8.98;;;;;;;;;;10065200;28;21030;-70
2022/09/02 09:11:19;;;;;;;10.13;9.43;;;;;;;;;;10056230;28;20093;-70
2022/09/02 09:16:23;;;;;;;9.82;9.02;;;;;;;;;;10060810;28;20523;-71
2022/09/02 09:21:20;;;;;;;10.30;9.60;;;;;;;;;;10077248;28;20054;-71
2022/09/02 09:26:29;;;;;;;9.93;9.30;;;;;;;;;;10065456;28;20105;-73
2022/09/02 09:31:31;;;;;;;9.95;9.35;;;;;;;;;;10070590;28;20133;-68
2022/09/02 09:36:39;;;;;;;9.75;9.15;;;;;;;;;;10070111;28;20201;-70
2022/09/02 09:41:36;;;;;;;10.45;9.75;;;;;;;;;;10075153;28;20079;-69
2022/09/02 09:46:32;;;;;;;10.40;9.80;;;;;;;;;;10047191;28;20607;-71
2022/09/02 09:51:29;;;;;;;12.02;9.52;;;;;;;;;;10069935;28;20551;-71
2022/09/02 09:56:45;;;;;;;9.30;8.70;;;;;;;;;;10053354;28;20074;-70
2022/09/02 10:01:48;;;;;;;9.95;9.35;;;;;;;;;;10057905;28;20093;-69
2022/09/02 10:06:47;;;;;;;9.05;8.43;;;;;;;;;;10057273;28;20047;-70
2022/09/02 10:11:57;;;;;;;10.13;9.32;;;;;;;;;;10052637;28;20039;-70
2022/09/02 10:17:06;;;;;;;9.82;9.13;;;;;;;;;;10062692;28;20263;-70
2022/09/02 10:22:02;;;;;;;10.00;9.30;;;;;;;;;;10077447;28;20497;-70
2022/09/02 10:27:01;;;;;;;9.18;8.48;;;;;;;;;;10077931;28;20035;-70
2022/09/02 10:32:09;;;;;;;9.07;8.48;;;;;;;;;;10072766;28;20157;-71
2022/09/02 10:37:09;;;;;;;9.48;8.77;;;;;;;;;;10070962;28;20618;-70
2022/09/02 10:42:09;;;;;;;;;;;;;;;;;;10082327;28;20520;-70
2022/09/02 10:47:19;;;;;;;8.48;7.88;;;;;;;;;;10065981;28;19936;-71
2022/09/02 10:52:39;;;;;;;8.98;8.10;;;;;;;;;;10067900;28;20053;-71
2022/09/02 10:57:43;;;;;;;8.98;8.30;;;;;;;;;;10064690;28;20468;-71
2022/09/02 11:03:00;;;;;;;8.90;8.30;;;;;;;;;;10074242;28;20087;-71
2022/09/02 11:07:56;;;;;;;9.10;8.38;;;;;;;;;;10063793;28;20138;-71
2022/09/02 11:13:00;;;;;;;9.27;8.68;;;;;;;;;;10079088;28;20096;-72
2022/09/02 11:18:03;;;;;;;9.13;8.52;;;;;;;;;;10074994;28;20063;-72
2022/09/02 11:23:18;;;;;;;9.25;8.65;;;;;;;;;;10078255;28;20463;-72
2022/09/02 11:28:25;;;;;;;10.10;9.50;;;;;;;;;;10069776;28;20166;-72
2022/09/02 11:33:27;;;;;;;9.73;9.13;;;;;;;;;;10063938;28;20070;-72
2022/09/02 11:38:35;;;;;;;9.68;9.07;;;;;;;;;;10073394;28;20535;-71
2022/09/02 11:43:34;;;;;;;10.05;9.45;;;;;;;;;;10072450;28;20784;-72
2022/09/02 11:48:33;;;;;;;9.60;8.90;;;;;;;;;;10071648;28;20055;-72
2022/09/02 11:53:34;;;;;;;10.07;9.23;;;;;;;;;;10064776;28;20523;-71
2022/09/02 11:58:41;;;;;;;9.98;9.27;;;;;;;;;;10048939;28;20043;-71
2022/09/02 12:03:41;;;;;;;9.30;8.70;;;;;;;;;;10056104;28;20143;-71
2022/09/02 12:09:03;;;;;;;9.85;9.25;;;;;;;;;;10058293;28;20058;-71
2022/09/02 12:13:59;;;;;;;9.68;8.88;;;;;;;;;;10067150;28;20114;-72
2022/09/02 12:19:06;;;;;;;10.13;9.32;;;;;;;;;;10075987;28;20544;-71
2022/09/02 12:24:10;;;;;;;9.25;8.65;;;;;;;;;;10058761;28;20135;-71
2022/09/02 12:29:18;;;;;;;9.82;9.23;;;;;;;;;;10066377;28;20062;-71
2022/09/02 12:34:24;;;;;;;10.50;9.45;;;;;;;;;;10065925;28;20053;-71
2022/09/02 12:39:27;;;;;;;10.30;9.60;;;;;;;;;;10077779;28;20043;-71
2022/09/02 12:44:26;;;;;;;9.80;9.10;;;;;;;;;;10082126;28;20089;-71
2022/09/02 12:49:41;;;;;;;9.98;9.25;;;;;;;;;;10071829;28;20077;-72
2022/09/02 12:54:37;;;;;;;9.70;9.00;;;;;;;;;;10068333;28;20125;-72
2022/09/02 12:59:36;;;;;;;10.23;9.52;;;;;;;;;;10063724;28;20481;-70
2022/09/02 13:04:51;;;;;;;9.57;8.95;;;;;;;;;;10065585;28;20047;-71
2022/09/02 13:09:56;;;;;;;9.57;8.98;;;;;;;;;;10067019;28;20097;-70
2022/09/02 13:14:53;;;;;;;9.60;8.98;;;;;;;;;;10072545;28;20581;-70
2022/09/02 13:19:59;;;;;;;9.63;9.02;;;;;;;;;;10080338;28;20130;-71
2022/09/02 13:25:14;;;;;;;10.88;10.02;;;;;;;;;;10067134;28;20067;-72
2022/09/02 13:30:20;;;;;;;9.38;8.63;;;;;;;;;;10072633;28;20091;-71
2022/09/02 13:35:19;;;;;;;10.02;9.43;;;;;;;;;;10069615;28;20074;-70
2022/09/02 13:40:24;;;;;;;9.70;8.95;;;;;;;;;;10078672;28;20075;-71
2022/09/02 13:45:23;;;;;;;8.50;7.95;;;;;;;;;;10081332;28;20053;-71
2022/09/02 13:50:21;;;;;;;8.90;8.30;;;;;;;;;;10078796;28;20129;-71
2022/09/02 13:55:19;;;;;;;9.57;8.90;;;;;;;;;;10075579;28;20077;-71
2022/09/02 14:00:24;;;;;;;9.13;8.43;;;;;;;;;;10074313;28;20479;-71
2022/09/02 14:05:21;;;;;;;9.00;8.30;;;;;;;;;;10069703;28;20492;-71
2022/09/02 14:10:19;;;;;;;8.82;8.13;;;;;;;;;;10066650;28;20074;-72
2022/09/02 14:15:22;;;;;;;8.85;8.27;;;;;;;;;;10066704;28;20495;-72
2022/09/02 14:20:21;;;;;;;8.57;7.97;;;;;;;;;;10075702;28;20133;-71
2022/09/02 14:25:18;;;;;;;9.30;8.60;;;;;;;;;;10075207;28;20079;-71
2022/09/02 14:30:31;;;;;;;8.88;8.27;;;;;;;;;;10068077;28;20079;-71
2022/09/02 14:35:27;;;;;;;10.05;9.25;;;;;;;;;;10080460;28;20061;-72
2022/09/02 14:40:31;;;;;;;8.35;7.75;;;;;;;;;;10077119;28;20073;-71
2022/09/02 14:45:28;;;;;;;8.65;8.05;;;;;;;;;;10092950;28;20074;-71
2022/09/02 14:50:27;;;;;;;13.68;9.18;;;;;;;;;;10095583;28;20070;-71
2022/09/02 14:55:38;;;;;;;8.52;7.82;;;;;;;;;;10092936;28;20129;-71
2022/09/02 15:00:37;;;;;;;8.95;8.35;;;;;;;;;;10081188;28;20039;-71
2022/09/02 15:05:34;;;;;;;9.10;8.40;;;;;;;;;;10083911;28;20394;-71
2022/09/02 15:10:30;;;;;;;8.50;7.88;;;;;;;;;;10101644;28;20126;-72
2022/09/02 15:15:26;;;;;;;8.20;7.60;;;;;;;;;;10074845;28;20066;-71
2022/09/02 15:20:23;;;;;;;8.13;7.45;;;;;;;;;;10071035;28;20054;-71
2022/09/02 15:25:19;;;;;;;8.90;8.20;;;;;;;;;;10072716;28;20124;-71
2022/09/02 15:30:16;;;;;;;8.98;8.25;;;;;;;;;;10077259;28;20565;-71
2022/09/02 15:35:12;;;;;;;8.98;8.32;;;;;;;;;;10074968;28;20186;-71
2022/09/02 15:40:09;;;;;;;8.75;8.02;;;;;;;;;;10081747;28;20063;-71
2022/09/02 15:45:07;;;;;;;8.50;7.90;;;;;;;;;;10075974;28;20101;-71
2022/09/02 15:50:04;;;;;;;8.70;7.88;;;;;;;;;;10083476;28;20083;-71
2022/09/02 15:55:01;;;;;;;7.95;7.45;;;;;;;;;;10080212;28;20074;-71
2022/09/02 15:59:57;;;;;;;8.27;7.78;;;;;;;;;;10071751;28;20103;-71
2022/09/02 16:04:54;;;;;;;8.90;8.25;;;;;;;;;;10077287;28;20043;-71
2022/09/02 16:09:50;;;;;;;7.90;7.40;;;;;;;;;;10027989;28;20493;-71
2022/09/02 16:14:49;;;;;;;8.27;7.57;;;;;;;;;;10027738;28;20048;-71
2022/09/02 16:19:46;;;;;;;10.27;9.40;;;;;;;;;;10026203;28;20052;-71
2022/09/02 16:24:42;;;;;;;8.10;7.35;;;;;;;;;;10034415;28;20079;-71
2022/09/02 16:29:40;;;;;;;8.15;7.45;;;;;;;;;;10055273;28;20075;-71
2022/09/02 16:34:36;;;;;;;8.65;6.85;;;;;;;;;;10054414;28;20043;-71
2022/09/02 16:39:33;;;;;;;8.88;7.95;;;;;;;;;;10075393;28;20105;-71
2022/09/02 16:44:32;;;;;;;7.85;7.20;;;;;;;;;;10056889;28;20469;-71
2022/09/02 16:49:28;;;;;;;7.38;6.80;;;;;;;;;;10060601;28;20078;-71
2022/09/02 16:54:28;;;;;;;8.30;7.70;;;;;;;;;;10063013;28;20074;-71
2022/09/02 16:59:27;;;;;;;8.40;7.65;;;;;;;;;;10067620;28;20089;-71
2022/09/02 17:04:24;;;;;;;7.53;7.03;;;;;;;;;;10057910;28;20051;-71
2022/09/02 17:09:20;;;;;;;8.93;8.10;;;;;;;;;;10043202;28;20047;-71
2022/09/02 17:14:16;;;;;;;8.48;7.68;;;;;;;;;;10075209;28;20280;-71
2022/09/02 17:19:19;;;;;;;8.13;7.32;;;;;;;;;;10095534;28;20048;-71
2022/09/02 17:24:16;;;;;;;8.25;7.55;;;;;;;;;;10073930;28;20047;-71
2022/09/02 17:29:16;;;;;;;8.48;7.75;;;;;;;;;;10060618;28;20047;-71
2022/09/02 17:34:33;;;;;;;8.23;7.55;;;;;;;;;;10057053;28;20476;-71
2022/09/02 17:39:29;;;;;;;8.40;7.60;;;;;;;;;;10046720;28;20086;-71
2022/09/02 17:44:33;;;;;;;7.70;7.10;;;;;;;;;;10054028;28;20051;-71
2022/09/02 17:49:30;;;;;;;7.45;6.95;;;;;;;;;;10078571;28;20085;-70
2022/09/02 17:54:29;;;;;;;7.70;7.10;;;;;;;;;;10071055;28;20497;-71
2022/09/02 17:59:44;;;;;;;8.20;7.32;;;;;;;;;;10073230;28;20569;-71
2022/09/02 18:04:40;;;;;;;7.70;7.10;;;;;;;;;;10066906;28;20085;-70
2022/09/02 18:09:37;;;;;;;8.13;7.45;;;;;;;;;;10089186;28;20043;-70
2022/09/02 18:14:37;;;;;;;7.63;7.13;;;;;;;;;;10061606;28;20465;-70
2022/09/02 18:19:50;;;;;;;8.07;7.47;;;;;;;;;;10068219;28;20134;-71
2022/09/02 18:25:07;;;;;;;8.25;7.55;;;;;;;;;;10069234;28;20110;-71
2022/09/02 18:30:08;;;;;;;8.07;7.50;;;;;;;;;;10076834;28;20150;-71
2022/09/02 18:35:23;;;;;;;7.60;7.00;;;;;;;;;;10066128;28;20100;-71
2022/09/02 18:40:28;;;;;;;8.45;7.78;;;;;;;;;;10066804;28;20055;-71
2022/09/02 18:45:27;;;;;;;7.57;6.90;;;;;;;;;;10064021;28;20126;-71
2022/09/02 18:50:30;;;;;;;7.22;6.63;;;;;;;;;;10100520;28;20047;-70
2022/09/02 18:55:46;;;;;;;7.90;7.30;;;;;;;;;;10089640;28;20050;-71
2022/09/02 19:00:48;;;;;;;7.32;6.72;;;;;;;;;;10071644;28;20134;-70
2022/09/02 19:05:44;;;;;;;8.48;7.38;;;;;;;;;;10093145;28;20059;-71
2022/09/02 19:10:40;;;;;;;7.28;6.68;;;;;;;;;;10061050;28;20039;-71
2022/09/02 19:15:37;;;;;;;7.22;6.72;;;;;;;;;;10063146;28;20070;-71
2022/09/02 19:20:34;;;;;;;7.80;7.07;;;;;;;;;;10070338;28;20540;-71
2022/09/02 19:25:32;;;;;;;7.30;6.80;;;;;;;;;;10067140;28;20086;-70
2022/09/02 19:30:34;;;;;;;7.63;7.10;;;;;;;;;;10072829;28;20108;-71
2022/09/02 19:35:35;;;;;;;7.63;7.03;;;;;;;;;;10073349;28;20051;-71
2022/09/02 19:40:32;;;;;;;8.15;7.45;;;;;;;;;;10056757;28;20066;-71
2022/09/02 19:45:29;;;;;;;7.50;7.00;;;;;;;;;;10066813;28;20059;-70
2022/09/02 19:50:25;;;;;;;7.20;6.68;;;;;;;;;;10070966;28;20043;-70
2022/09/02 19:55:22;;;;;;;7.68;7.07;;;;;;;;;;10062294;28;20051;-70
2022/09/02 20:00:19;;;;;;;7.50;6.78;;;;;;;;;;10045057;28;20083;-70
2022/09/02 20:05:15;;;;;;;7.43;6.82;;;;;;;;;;10088628;28;20527;-70
2022/09/02 20:10:12;;;;;;;6.68;6.07;;;;;;;;;;10066642;28;20509;-71
2022/09/02 20:15:09;;;;;;;6.90;6.40;;;;;;;;;;10056468;28;20165;-71
2022/09/02 20:20:07;;;;;;;9.43;8.50;;;;;;;;;;10054047;28;20127;-71
2022/09/02 20:25:04;;;;;;;8.30;7.50;;;;;;;;;;10053798;28;20051;-71
2022/09/02 20:30:04;;;;;;;7.75;7.05;;;;;;;;;;10059575;28;20576;-72
2022/09/02 20:35:07;;;;;;;7.63;7.03;;;;;;;;;;10064336;28;20051;-71
2022/09/02 20:40:14;;;;;;;7.10;6.50;;;;;;;;;;10069521;28;20066;-71
2022/09/02 20:45:13;;;;;;;7.38;6.88;;;;;;;;;;10077332;28;20067;-71
2022/09/02 20:50:21;;;;;;;7.25;6.28;;;;;;;;;;10069783;28;20504;-71
2022/09/02 20:55:24;;;;;;;6.70;6.20;;;;;;;;;;10071466;28;20588;-71
2022/09/02 21:00:20;;;;;;;7.05;6.40;;;;;;;;;;10081217;28;20086;-71
2022/09/02 21:05:19;;;;;;;6.35;5.90;;;;;;;;;;10079115;28;20050;-71
2022/09/02 21:10:22;;;;;;;6.40;5.90;;;;;;;;;;10074050;28;20051;-71
2022/09/02 21:15:24;;;;;;;6.32;5.80;;;;;;;;;;10074293;28;20455;-71
2022/09/02 21:20:35;;;;;;;6.60;6.10;;;;;;;;;;10064697;28;20464;-71
2022/09/02 21:25:51;;;;;;;7.00;6.30;;;;;;;;;;10059363;28;20072;-71
2022/09/02 21:30:50;;;;;;;6.00;5.60;;;;;;;;;;10073481;28;20039;-71
2022/09/02 21:35:47;;;;;;;6.30;5.80;;;;;;;;;;10077081;28;20130;-70
2022/09/02 21:40:53;;;;;;;6.78;5.63;;;;;;;;;;10070396;28;20074;-71
2022/09/02 21:46:14;;;;;;;6.28;5.70;;;;;;;;;;10093229;28;20035;-71
2022/09/02 21:51:19;;;;;;;7.28;6.50;;;;;;;;;;10100826;28;20063;-71
2022/09/02 21:56:28;;;;;;;6.07;5.68;;;;;;;;;;10096494;28;20046;-71
2022/09/02 22:01:36;;;;;;;6.25;5.75;;;;;;;;;;10071978;28;20143;-71
2022/09/02 22:06:39;;;;;;;5.75;5.35;;;;;;;;;;10057332;28;20047;-71
2022/09/02 22:11:37;;;;;;;6.13;5.50;;;;;;;;;;10082548;28;20047;-71
2022/09/02 22:16:39;;;;;;;6.13;5.18;;;;;;;;;;10070091;28;20043;-71
2022/09/02 22:21:49;;;;;;;6.07;5.65;;;;;;;;;;10068848;28;20051;-71
2022/09/02 22:26:49;;;;;;;5.90;5.40;;;;;;;;;;10074538;28;20078;-71
2022/09/02 22:31:47;;;;;;;6.22;5.72;;;;;;;;;;10069456;28;20047;-71
2022/09/02 22:36:48;;;;;;;6.20;5.68;;;;;;;;;;10063668;28;20974;-71
2022/09/02 22:41:51;;;;;;;5.95;5.45;;;;;;;;;;10059684;28;20043;-71
2022/09/02 22:57:37;;;;;;;6.28;5.78;;;;;;;;;;10080581;28;20543;-71
2022/09/02 23:02:40;;;;;;;6.43;5.57;;;;;;;;;;10099331;28;20076;-71
2022/09/02 23:07:37;;;;;;;5.95;5.35;;;;;;;;;;10067198;28;20521;-71
2022/09/02 23:12:52;;;;;;;6.00;5.50;;;;;;;;;;10070608;28;20504;-71
2022/09/02 23:18:28;;;;;;;6.07;5.47;;;;;;;;;;10075363;28;20050;-71
2022/09/02 23:23:28;;;;;;;5.90;5.50;;;;;;;;;;10091965;28;20431;-71
2022/09/02 23:28:34;;;;;;;6.28;5.75;;;;;;;;;;10071797;28;20079;-71
2022/09/02 23:33:30;;;;;;;6.28;5.70;;;;;;;;;;10079974;28;20550;-71
2022/09/02 23:38:26;;;;;;;6.40;5.80;;;;;;;;;;10107879;28;20045;-71
2022/09/02 23:43:22;;;;;;;6.05;5.47;;;;;;;;;;10088451;28;20086;-71
2022/09/02 23:48:34;;;;;;;5.97;5.15;;;;;;;;;;10040767;28;20055;-71
2022/09/02 23:54:07;;;;;;;6.03;5.50;;;;;;;;;;10032313;28;20782;-71
2022/09/02 23:59:09;;;;;;;5.75;5.35;;;;;;;;;;10040197;28;20059;-71
